sensor_id;sensor_type;location;lat;lon;timestamp;temperature;humidity
29721;DHT22;23665;51.044;3.748;2022-09-09T00:02:26;17.30;99.90
29721;DHT22;23665;51.044;3.748;2022-09-09T00:04:55;17.20;99.90
29721;DHT22;23665;51.044;3.748;2022-09-09T00:10:34;17.10;99.90
29721;DHT22;23665;51.044;3.748;2022-09-09T00:15:38;17.30;99.90
29721;DHT22;23665;51.044;3.748;2022-09-09T00:18:17;17.10;99.90
29721;DHT22;23665;51.044;3.748;2022-09-09T00:21:01;17.00;99.90
29721;DHT22;23665;51.044;3.748;2022-09-09T00:23:35;17.00;99.90
29721;DHT22;23665;51.044;3.748;2022-09-09T00:28:29;17.00;99.90
29721;DHT22;23665;51.044;3.748;2022-09-09T00:31:04;17.10;99.90
29721;DHT22;23665;51.044;3.748;2022-09-09T00:33:34;17.00;99.90
29721;DHT22;23665;51.044;3.748;2022-09-09T00:36:01;17.00;99.90
29721;DHT22;23665;51.044;3.748;2022-09-09T00:38:37;16.90;99.90
29721;DHT22;23665;51.044;3.748;2022-09-09T00:41:41;16.80;99.90
29721;DHT22;23665;51.044;3.748;2022-09-09T00:57:32;16.80;99.90
29721;DHT22;23665;51.044;3.748;2022-09-09T01:03:30;16.70;99.90
29721;DHT22;23665;51.044;3.748;2022-09-09T01:11:50;16.60;99.90
29721;DHT22;23665;51.044;3.748;2022-09-09T01:17:23;16.60;99.90
29721;DHT22;23665;51.044;3.748;2022-09-09T01:27:46;16.50;99.90
29721;DHT22;23665;51.044;3.748;2022-09-09T01:30:16;16.50;99.90
29721;DHT22;23665;51.044;3.748;2022-09-09T01:32:51;16.50;99.90
29721;DHT22;23665;51.044;3.748;2022-09-09T01:37:54;16.50;99.90
29721;DHT22;23665;51.044;3.748;2022-09-09T01:40:20;16.50;99.90
29721;DHT22;23665;51.044;3.748;2022-09-09T01:42:45;16.40;99.90
29721;DHT22;23665;51.044;3.748;2022-09-09T01:45:11;16.40;99.90
29721;DHT22;23665;51.044;3.748;2022-09-09T01:47:37;16.50;99.90
29721;DHT22;23665;51.044;3.748;2022-09-09T01:50:03;16.50;99.90
29721;DHT22;23665;51.044;3.748;2022-09-09T01:52:29;16.50;99.90
29721;DHT22;23665;51.044;3.748;2022-09-09T01:54:56;16.50;99.90
29721;DHT22;23665;51.044;3.748;2022-09-09T01:57:34;16.40;99.90
29721;DHT22;23665;51.044;3.748;2022-09-09T02:00:09;16.40;99.90
29721;DHT22;23665;51.044;3.748;2022-09-09T02:03:01;16.50;99.90
29721;DHT22;23665;51.044;3.748;2022-09-09T02:05:37;16.60;99.90
29721;DHT22;23665;51.044;3.748;2022-09-09T02:08:09;16.60;99.90
29721;DHT22;23665;51.044;3.748;2022-09-09T02:11:16;16.70;99.90
29721;DHT22;23665;51.044;3.748;2022-09-09T02:13:44;16.60;99.90
29721;DHT22;23665;51.044;3.748;2022-09-09T02:19:14;16.80;99.90
29721;DHT22;23665;51.044;3.748;2022-09-09T02:21:43;16.80;99.90
29721;DHT22;23665;51.044;3.748;2022-09-09T02:24:12;16.80;99.90
29721;DHT22;23665;51.044;3.748;2022-09-09T02:26:41;16.80;99.90
29721;DHT22;23665;51.044;3.748;2022-09-09T02:29:19;16.80;99.90
29721;DHT22;23665;51.044;3.748;2022-09-09T02:31:47;16.90;99.90
29721;DHT22;23665;51.044;3.748;2022-09-09T02:34:18;16.90;99.90
29721;DHT22;23665;51.044;3.748;2022-09-09T02:36:46;16.80;99.90
29721;DHT22;23665;51.044;3.748;2022-09-09T02:39:13;16.80;99.90
29721;DHT22;23665;51.044;3.748;2022-09-09T02:41:41;16.80;99.90
29721;DHT22;23665;51.044;3.748;2022-09-09T02:44:18;16.90;99.90
29721;DHT22;23665;51.044;3.748;2022-09-09T02:55:16;16.90;99.90
29721;DHT22;23665;51.044;3.748;2022-09-09T02:57:43;16.90;99.90
29721;DHT22;23665;51.044;3.748;2022-09-09T03:00:12;16.80;99.90
29721;DHT22;23665;51.044;3.748;2022-09-09T03:02:38;16.80;99.90
29721;DHT22;23665;51.044;3.748;2022-09-09T03:05:05;16.80;99.90
29721;DHT22;23665;51.044;3.748;2022-09-09T03:07:31;16.70;99.90
29721;DHT22;23665;51.044;3.748;2022-09-09T03:09:57;16.70;99.90
29721;DHT22;23665;51.044;3.748;2022-09-09T03:12:23;16.70;99.90
29721;DHT22;23665;51.044;3.748;2022-09-09T03:14:49;16.60;99.90
29721;DHT22;23665;51.044;3.748;2022-09-09T03:17:15;16.70;99.90
29721;DHT22;23665;51.044;3.748;2022-09-09T03:19:41;16.60;99.90
29721;DHT22;23665;51.044;3.748;2022-09-09T03:22:08;16.60;99.90
29721;DHT22;23665;51.044;3.748;2022-09-09T03:24:34;16.60;99.90
29721;DHT22;23665;51.044;3.748;2022-09-09T03:27:00;16.60;99.90
29721;DHT22;23665;51.044;3.748;2022-09-09T03:29:26;16.60;99.90
29721;DHT22;23665;51.044;3.748;2022-09-09T03:31:52;16.60;99.90
29721;DHT22;23665;51.044;3.748;2022-09-09T03:34:17;16.70;99.90
29721;DHT22;23665;51.044;3.748;2022-09-09T03:36:43;16.70;99.90
29721;DHT22;23665;51.044;3.748;2022-09-09T03:39:09;16.70;99.90
29721;DHT22;23665;51.044;3.748;2022-09-09T03:41:34;16.80;99.90
29721;DHT22;23665;51.044;3.748;2022-09-09T03:44:00;16.80;99.90
29721;DHT22;23665;51.044;3.748;2022-09-09T03:46:26;16.80;99.90
29721;DHT22;23665;51.044;3.748;2022-09-09T03:48:52;16.90;99.90
29721;DHT22;23665;51.044;3.748;2022-09-09T03:51:18;17.00;99.90
29721;DHT22;23665;51.044;3.748;2022-09-09T03:53:44;17.00;99.90
29721;DHT22;23665;51.044;3.748;2022-09-09T03:56:10;17.00;99.90
29721;DHT22;23665;51.044;3.748;2022-09-09T03:58:39;16.90;99.90
29721;DHT22;23665;51.044;3.748;2022-09-09T04:01:14;16.90;99.90
29721;DHT22;23665;51.044;3.748;2022-09-09T04:03:40;16.80;99.90
29721;DHT22;23665;51.044;3.748;2022-09-09T04:06:07;16.80;99.90
29721;DHT22;23665;51.044;3.748;2022-09-09T04:08:35;16.70;99.90
29721;DHT22;23665;51.044;3.748;2022-09-09T04:11:01;16.70;99.90
29721;DHT22;23665;51.044;3.748;2022-09-09T04:13:30;16.70;99.90
29721;DHT22;23665;51.044;3.748;2022-09-09T04:15:58;16.70;99.90
29721;DHT22;23665;51.044;3.748;2022-09-09T04:18:24;16.70;99.90
29721;DHT22;23665;51.044;3.748;2022-09-09T04:20:52;16.70;99.90
29721;DHT22;23665;51.044;3.748;2022-09-09T04:23:19;16.70;99.90
29721;DHT22;23665;51.044;3.748;2022-09-09T04:25:50;16.70;99.90
29721;DHT22;23665;51.044;3.748;2022-09-09T04:28:17;16.70;99.90
29721;DHT22;23665;51.044;3.748;2022-09-09T04:30:44;16.70;99.90
29721;DHT22;23665;51.044;3.748;2022-09-09T04:33:10;16.70;99.90
29721;DHT22;23665;51.044;3.748;2022-09-09T04:35:37;16.70;99.90
29721;DHT22;23665;51.044;3.748;2022-09-09T04:38:03;16.80;99.90
29721;DHT22;23665;51.044;3.748;2022-09-09T04:40:30;16.80;99.90
29721;DHT22;23665;51.044;3.748;2022-09-09T04:43:00;16.90;99.90
29721;DHT22;23665;51.044;3.748;2022-09-09T04:45:26;16.80;99.90
29721;DHT22;23665;51.044;3.748;2022-09-09T04:47:52;16.80;99.90
29721;DHT22;23665;51.044;3.748;2022-09-09T04:50:18;16.70;99.90
29721;DHT22;23665;51.044;3.748;2022-09-09T04:52:44;16.70;99.90
29721;DHT22;23665;51.044;3.748;2022-09-09T04:55:10;16.60;99.90
29721;DHT22;23665;51.044;3.748;2022-09-09T04:57:37;16.60;99.90
29721;DHT22;23665;51.044;3.748;2022-09-09T05:00:03;16.60;99.90
29721;DHT22;23665;51.044;3.748;2022-09-09T05:02:29;16.60;99.90
29721;DHT22;23665;51.044;3.748;2022-09-09T05:04:55;16.60;99.90
29721;DHT22;23665;51.044;3.748;2022-09-09T05:07:21;16.60;99.90
29721;DHT22;23665;51.044;3.748;2022-09-09T05:19:53;16.40;99.90
29721;DHT22;23665;51.044;3.748;2022-09-09T05:22:20;16.50;99.90
29721;DHT22;23665;51.044;3.748;2022-09-09T05:24:46;16.60;99.90
29721;DHT22;23665;51.044;3.748;2022-09-09T05:27:11;16.70;99.90
29721;DHT22;23665;51.044;3.748;2022-09-09T05:29:38;16.70;99.90
29721;DHT22;23665;51.044;3.748;2022-09-09T05:32:04;16.80;99.90
29721;DHT22;23665;51.044;3.748;2022-09-09T05:34:30;16.70;99.90
29721;DHT22;23665;51.044;3.748;2022-09-09T05:36:55;16.70;99.90
29721;DHT22;23665;51.044;3.748;2022-09-09T05:39:21;16.70;99.90
29721;DHT22;23665;51.044;3.748;2022-09-09T05:41:47;16.80;99.90
29721;DHT22;23665;51.044;3.748;2022-09-09T05:44:12;16.70;99.90
29721;DHT22;23665;51.044;3.748;2022-09-09T05:46:39;16.70;99.90
29721;DHT22;23665;51.044;3.748;2022-09-09T05:49:05;16.70;99.90
29721;DHT22;23665;51.044;3.748;2022-09-09T05:51:31;16.80;99.90
29721;DHT22;23665;51.044;3.748;2022-09-09T05:53:57;16.80;99.90
29721;DHT22;23665;51.044;3.748;2022-09-09T05:56:28;16.70;99.90
29721;DHT22;23665;51.044;3.748;2022-09-09T05:58:54;16.80;99.90
29721;DHT22;23665;51.044;3.748;2022-09-09T06:01:29;16.90;99.90
29721;DHT22;23665;51.044;3.748;2022-09-09T06:03:55;17.00;99.90
29721;DHT22;23665;51.044;3.748;2022-09-09T06:06:23;17.10;99.90
29721;DHT22;23665;51.044;3.748;2022-09-09T06:08:54;17.10;99.90
29721;DHT22;23665;51.044;3.748;2022-09-09T06:11:26;17.70;99.90
29721;DHT22;23665;51.044;3.748;2022-09-09T06:13:53;18.20;99.90
29721;DHT22;23665;51.044;3.748;2022-09-09T06:16:21;18.50;99.90
29721;DHT22;23665;51.044;3.748;2022-09-09T06:18:49;18.70;99.90
29721;DHT22;23665;51.044;3.748;2022-09-09T06:21:24;18.70;99.90
29721;DHT22;23665;51.044;3.748;2022-09-09T06:23:50;18.70;99.90
29721;DHT22;23665;51.044;3.748;2022-09-09T06:26:22;18.70;99.90
29721;DHT22;23665;51.044;3.748;2022-09-09T06:28:49;18.80;99.90
29721;DHT22;23665;51.044;3.748;2022-09-09T06:31:17;18.80;99.90
29721;DHT22;23665;51.044;3.748;2022-09-09T06:33:47;18.80;99.90
29721;DHT22;23665;51.044;3.748;2022-09-09T06:36:19;18.90;99.90
29721;DHT22;23665;51.044;3.748;2022-09-09T06:38:45;19.00;99.90
29721;DHT22;23665;51.044;3.748;2022-09-09T06:41:13;19.00;99.90
29721;DHT22;23665;51.044;3.748;2022-09-09T06:43:39;18.90;99.90
29721;DHT22;23665;51.044;3.748;2022-09-09T06:46:19;19.10;99.90
29721;DHT22;23665;51.044;3.748;2022-09-09T06:48:47;19.20;99.90
29721;DHT22;23665;51.044;3.748;2022-09-09T06:51:21;19.20;99.90
29721;DHT22;23665;51.044;3.748;2022-09-09T06:53:50;19.30;99.90
29721;DHT22;23665;51.044;3.748;2022-09-09T06:58:42;19.30;99.90
29721;DHT22;23665;51.044;3.748;2022-09-09T07:01:10;19.40;99.90
29721;DHT22;23665;51.044;3.748;2022-09-09T07:03:38;19.40;99.90
29721;DHT22;23665;51.044;3.748;2022-09-09T07:06:05;19.60;99.90
29721;DHT22;23665;51.044;3.748;2022-09-09T07:08:31;19.70;99.90
29721;DHT22;23665;51.044;3.748;2022-09-09T07:11:04;19.60;99.90
29721;DHT22;23665;51.044;3.748;2022-09-09T07:13:31;19.60;99.90
29721;DHT22;23665;51.044;3.748;2022-09-09T07:16:07;19.80;99.90
29721;DHT22;23665;51.044;3.748;2022-09-09T07:18:33;19.70;99.90
29721;DHT22;23665;51.044;3.748;2022-09-09T07:21:00;19.70;99.90
29721;DHT22;23665;51.044;3.748;2022-09-09T07:23:27;19.60;99.90
29721;DHT22;23665;51.044;3.748;2022-09-09T07:25:53;19.80;99.90
29721;DHT22;23665;51.044;3.748;2022-09-09T07:28:20;19.70;99.90
29721;DHT22;23665;51.044;3.748;2022-09-09T07:31:01;19.60;99.90
29721;DHT22;23665;51.044;3.748;2022-09-09T07:33:32;20.00;99.90
29721;DHT22;23665;51.044;3.748;2022-09-09T07:36:22;20.20;99.90
29721;DHT22;23665;51.044;3.748;2022-09-09T07:38:50;20.40;99.90
29721;DHT22;23665;51.044;3.748;2022-09-09T07:41:20;19.90;99.90
29721;DHT22;23665;51.044;3.748;2022-09-09T07:43:47;19.80;99.90
29721;DHT22;23665;51.044;3.748;2022-09-09T07:46:14;19.60;99.90
29721;DHT22;23665;51.044;3.748;2022-09-09T07:48:47;19.60;99.90
29721;DHT22;23665;51.044;3.748;2022-09-09T07:51:18;19.70;99.90
29721;DHT22;23665;51.044;3.748;2022-09-09T07:53:45;19.80;99.90
29721;DHT22;23665;51.044;3.748;2022-09-09T07:56:14;19.60;99.90
29721;DHT22;23665;51.044;3.748;2022-09-09T07:58:42;19.50;99.90
29721;DHT22;23665;51.044;3.748;2022-09-09T08:01:24;19.60;99.90
29721;DHT22;23665;51.044;3.748;2022-09-09T08:04:05;19.60;99.90
29721;DHT22;23665;51.044;3.748;2022-09-09T08:06:38;19.30;99.90
29721;DHT22;23665;51.044;3.748;2022-09-09T08:09:05;19.20;99.90
29721;DHT22;23665;51.044;3.748;2022-09-09T08:11:32;19.00;99.90
29721;DHT22;23665;51.044;3.748;2022-09-09T08:13:59;18.50;99.90
29721;DHT22;23665;51.044;3.748;2022-09-09T08:16:27;18.30;99.90
29721;DHT22;23665;51.044;3.748;2022-09-09T08:18:53;18.00;99.90
29721;DHT22;23665;51.044;3.748;2022-09-09T08:21:24;17.80;99.90
29721;DHT22;23665;51.044;3.748;2022-09-09T08:23:51;17.70;99.90
29721;DHT22;23665;51.044;3.748;2022-09-09T08:26:20;17.60;99.90
29721;DHT22;23665;51.044;3.748;2022-09-09T08:28:50;17.50;99.90
29721;DHT22;23665;51.044;3.748;2022-09-09T08:33:47;17.30;99.90
29721;DHT22;23665;51.044;3.748;2022-09-09T08:36:15;17.40;99.90
29721;DHT22;23665;51.044;3.748;2022-09-09T08:38:42;17.30;99.90
29721;DHT22;23665;51.044;3.748;2022-09-09T08:44:14;17.20;99.90
29721;DHT22;23665;51.044;3.748;2022-09-09T08:50:04;17.30;99.90
29721;DHT22;23665;51.044;3.748;2022-09-09T08:57:40;17.40;99.90
29721;DHT22;23665;51.044;3.748;2022-09-09T09:00:09;17.50;99.90
29721;DHT22;23665;51.044;3.748;2022-09-09T09:03:06;17.50;99.90
29721;DHT22;23665;51.044;3.748;2022-09-09T09:05:57;17.50;99.90
29721;DHT22;23665;51.044;3.748;2022-09-09T09:08:32;17.50;99.90
29721;DHT22;23665;51.044;3.748;2022-09-09T09:11:04;17.50;99.90
29721;DHT22;23665;51.044;3.748;2022-09-09T09:18:51;17.60;99.90
29721;DHT22;23665;51.044;3.748;2022-09-09T09:21:36;17.60;99.90
29721;DHT22;23665;51.044;3.748;2022-09-09T09:24:11;17.60;99.90
29721;DHT22;23665;51.044;3.748;2022-09-09T09:26:43;17.70;99.90
29721;DHT22;23665;51.044;3.748;2022-09-09T09:29:12;17.80;99.90
29721;DHT22;23665;51.044;3.748;2022-09-09T09:31:38;18.10;99.90
29721;DHT22;23665;51.044;3.748;2022-09-09T09:34:04;18.40;99.90
29721;DHT22;23665;51.044;3.748;2022-09-09T09:36:54;18.50;99.90
29721;DHT22;23665;51.044;3.748;2022-09-09T09:39:28;18.60;99.90
29721;DHT22;23665;51.044;3.748;2022-09-09T09:41:54;18.80;99.90
29721;DHT22;23665;51.044;3.748;2022-09-09T09:46:45;18.90;99.90
29721;DHT22;23665;51.044;3.748;2022-09-09T09:49:11;18.90;99.90
29721;DHT22;23665;51.044;3.748;2022-09-09T09:51:39;19.00;99.90
29721;DHT22;23665;51.044;3.748;2022-09-09T09:54:28;18.90;99.90
29721;DHT22;23665;51.044;3.748;2022-09-09T09:56:55;18.90;99.90
29721;DHT22;23665;51.044;3.748;2022-09-09T09:59:22;18.70;99.90
29721;DHT22;23665;51.044;3.748;2022-09-09T10:01:48;18.70;99.90
29721;DHT22;23665;51.044;3.748;2022-09-09T10:04:18;18.80;99.90
29721;DHT22;23665;51.044;3.748;2022-09-09T10:06:46;18.80;99.90
29721;DHT22;23665;51.044;3.748;2022-09-09T10:09:31;18.80;99.90
29721;DHT22;23665;51.044;3.748;2022-09-09T10:38:28;19.00;99.90
29721;DHT22;23665;51.044;3.748;2022-09-09T10:59:53;19.40;99.90
29721;DHT22;23665;51.044;3.748;2022-09-09T11:02:27;19.30;99.90
29721;DHT22;23665;51.044;3.748;2022-09-09T11:10:40;19.30;99.90
29721;DHT22;23665;51.044;3.748;2022-09-09T11:13:35;19.20;99.90
29721;DHT22;23665;51.044;3.748;2022-09-09T11:18:58;19.80;99.90
29721;DHT22;23665;51.044;3.748;2022-09-09T11:21:34;20.20;99.90
29721;DHT22;23665;51.044;3.748;2022-09-09T11:24:10;20.40;99.90
29721;DHT22;23665;51.044;3.748;2022-09-09T11:26:53;20.60;99.90
29721;DHT22;23665;51.044;3.748;2022-09-09T11:29:46;20.70;99.90
29721;DHT22;23665;51.044;3.748;2022-09-09T11:40:23;21.10;99.90
29721;DHT22;23665;51.044;3.748;2022-09-09T11:43:04;20.90;99.90
29721;DHT22;23665;51.044;3.748;2022-09-09T11:45:32;21.00;99.90
29721;DHT22;23665;51.044;3.748;2022-09-09T11:48:00;21.10;94.80
29721;DHT22;23665;51.044;3.748;2022-09-09T11:53:18;21.20;97.40
29721;DHT22;23665;51.044;3.748;2022-09-09T11:55:46;20.80;99.90
29721;DHT22;23665;51.044;3.748;2022-09-09T12:00:43;20.70;99.90
29721;DHT22;23665;51.044;3.748;2022-09-09T12:06:13;20.90;99.90
29721;DHT22;23665;51.044;3.748;2022-09-09T12:08:47;20.90;99.90
29721;DHT22;23665;51.044;3.748;2022-09-09T12:11:25;21.00;99.90
29721;DHT22;23665;51.044;3.748;2022-09-09T12:13:59;21.20;99.50
29721;DHT22;23665;51.044;3.748;2022-09-09T12:16:36;21.30;94.50
29721;DHT22;23665;51.044;3.748;2022-09-09T12:19:14;21.20;95.40
29721;DHT22;23665;51.044;3.748;2022-09-09T12:22:47;21.20;99.90
29721;DHT22;23665;51.044;3.748;2022-09-09T12:24:41;21.20;99.90
29721;DHT22;23665;51.044;3.748;2022-09-09T12:27:31;21.20;99.90
29721;DHT22;23665;51.044;3.748;2022-09-09T12:30:07;21.30;99.90
29721;DHT22;23665;51.044;3.748;2022-09-09T12:32:35;21.20;99.90
29721;DHT22;23665;51.044;3.748;2022-09-09T12:35:10;21.30;99.90
29721;DHT22;23665;51.044;3.748;2022-09-09T12:38:00;21.30;99.90
29721;DHT22;23665;51.044;3.748;2022-09-09T12:40:31;21.40;97.90
29721;DHT22;23665;51.044;3.748;2022-09-09T12:43:19;21.60;93.90
29721;DHT22;23665;51.044;3.748;2022-09-09T12:45:47;21.70;93.20
29721;DHT22;23665;51.044;3.748;2022-09-09T12:48:18;21.70;89.20
29721;DHT22;23665;51.044;3.748;2022-09-09T12:50:51;21.60;90.40
29721;DHT22;23665;51.044;3.748;2022-09-09T12:53:35;21.40;92.50
29721;DHT22;23665;51.044;3.748;2022-09-09T12:56:04;21.30;96.40
29721;DHT22;23665;51.044;3.748;2022-09-09T12:58:33;21.00;99.90
29721;DHT22;23665;51.044;3.748;2022-09-09T13:01:01;20.90;99.90
29721;DHT22;23665;51.044;3.748;2022-09-09T13:03:28;20.90;99.90
29721;DHT22;23665;51.044;3.748;2022-09-09T13:05:58;21.00;99.90
29721;DHT22;23665;51.044;3.748;2022-09-09T13:08:25;21.00;99.90
29721;DHT22;23665;51.044;3.748;2022-09-09T13:11:01;20.90;99.90
29721;DHT22;23665;51.044;3.748;2022-09-09T13:13:34;20.90;99.90
29721;DHT22;23665;51.044;3.748;2022-09-09T13:16:02;21.10;99.90
29721;DHT22;23665;51.044;3.748;2022-09-09T13:18:35;21.10;99.90
29721;DHT22;23665;51.044;3.748;2022-09-09T13:21:02;21.00;99.90
29721;DHT22;23665;51.044;3.748;2022-09-09T13:23:33;21.20;99.90
29721;DHT22;23665;51.044;3.748;2022-09-09T13:26:07;21.60;99.90
29721;DHT22;23665;51.044;3.748;2022-09-09T13:28:46;22.00;94.50
29721;DHT22;23665;51.044;3.748;2022-09-09T13:31:22;22.20;86.00
29721;DHT22;23665;51.044;3.748;2022-09-09T13:33:48;22.70;60.00
29721;DHT22;23665;51.044;3.748;2022-09-09T13:36:14;22.90;46.10
29721;DHT22;23665;51.044;3.748;2022-09-09T13:41:22;23.30;19.40
29721;DHT22;23665;51.044;3.748;2022-09-09T13:43:50;23.10;6.40
29721;DHT22;23665;51.044;3.748;2022-09-09T13:49:23;23.40;18.20
29721;DHT22;23665;51.044;3.748;2022-09-09T13:51:50;23.30;12.70
29721;DHT22;23665;51.044;3.748;2022-09-09T13:54:19;22.90;19.70
29721;DHT22;23665;51.044;3.748;2022-09-09T13:56:46;22.60;34.70
29721;DHT22;23665;51.044;3.748;2022-09-09T13:59:17;22.50;35.00
29721;DHT22;23665;51.044;3.748;2022-09-09T14:01:45;22.50;38.50
29721;DHT22;23665;51.044;3.748;2022-09-09T14:04:11;22.30;37.90
29721;DHT22;23665;51.044;3.748;2022-09-09T14:06:37;22.20;29.40
29721;DHT22;23665;51.044;3.748;2022-09-09T14:09:04;22.20;45.40
29721;DHT22;23665;51.044;3.748;2022-09-09T14:11:30;22.40;34.20
29721;DHT22;23665;51.044;3.748;2022-09-09T14:13:55;22.40;35.10
29721;DHT22;23665;51.044;3.748;2022-09-09T14:21:32;22.10;65.40
29721;DHT22;23665;51.044;3.748;2022-09-09T14:23:58;22.10;67.30
29721;DHT22;23665;51.044;3.748;2022-09-09T14:26:25;22.10;68.60
29721;DHT22;23665;51.044;3.748;2022-09-09T14:28:51;22.00;70.20
29721;DHT22;23665;51.044;3.748;2022-09-09T14:31:17;21.90;77.50
29721;DHT22;23665;51.044;3.748;2022-09-09T14:33:44;22.00;82.80
29721;DHT22;23665;51.044;3.748;2022-09-09T14:36:10;22.20;80.40
29721;DHT22;23665;51.044;3.748;2022-09-09T14:38:37;22.70;45.50
29721;DHT22;23665;51.044;3.748;2022-09-09T14:41:10;23.10;24.80
29721;DHT22;23665;51.044;3.748;2022-09-09T14:43:38;23.50;17.20
29721;DHT22;23665;51.044;3.748;2022-09-09T14:46:12;23.60;3.00
29721;DHT22;23665;51.044;3.748;2022-09-09T14:48:38;23.70;1.00
29721;DHT22;23665;51.044;3.748;2022-09-09T14:51:11;23.80;1.00
29721;DHT22;23665;51.044;3.748;2022-09-09T14:53:39;24.00;1.00
29721;DHT22;23665;51.044;3.748;2022-09-09T14:56:17;24.10;1.00
29721;DHT22;23665;51.044;3.748;2022-09-09T14:58:43;24.30;1.00
29721;DHT22;23665;51.044;3.748;2022-09-09T15:01:13;24.40;1.00
29721;DHT22;23665;51.044;3.748;2022-09-09T15:03:41;24.30;1.00
29721;DHT22;23665;51.044;3.748;2022-09-09T15:06:14;24.30;1.00
29721;DHT22;23665;51.044;3.748;2022-09-09T15:08:42;24.30;1.00
29721;DHT22;23665;51.044;3.748;2022-09-09T15:11:08;24.20;1.00
29721;DHT22;23665;51.044;3.748;2022-09-09T15:13:36;24.30;1.00
29721;DHT22;23665;51.044;3.748;2022-09-09T15:16:13;24.40;1.00
29721;DHT22;23665;51.044;3.748;2022-09-09T15:18:39;24.30;1.00
29721;DHT22;23665;51.044;3.748;2022-09-09T15:21:09;24.20;1.00
29721;DHT22;23665;51.044;3.748;2022-09-09T15:23:35;23.80;1.00
29721;DHT22;23665;51.044;3.748;2022-09-09T15:26:02;23.90;1.00
29721;DHT22;23665;51.044;3.748;2022-09-09T15:28:28;23.90;1.00
29721;DHT22;23665;51.044;3.748;2022-09-09T15:30:54;24.00;1.00
29721;DHT22;23665;51.044;3.748;2022-09-09T15:33:22;23.90;1.00
29721;DHT22;23665;51.044;3.748;2022-09-09T15:35:48;23.70;1.00
29721;DHT22;23665;51.044;3.748;2022-09-09T15:38:15;23.50;1.00
29721;DHT22;23665;51.044;3.748;2022-09-09T15:40:42;23.20;1.00
29721;DHT22;23665;51.044;3.748;2022-09-09T15:43:09;23.00;1.00
29721;DHT22;23665;51.044;3.748;2022-09-09T15:45:39;22.70;1.00
29721;DHT22;23665;51.044;3.748;2022-09-09T15:48:04;22.40;5.60
29721;DHT22;23665;51.044;3.748;2022-09-09T15:50:30;22.20;11.80
29721;DHT22;23665;51.044;3.748;2022-09-09T15:52:58;22.10;20.40
29721;DHT22;23665;51.044;3.748;2022-09-09T15:55:24;22.00;20.00
29721;DHT22;23665;51.044;3.748;2022-09-09T15:57:50;22.00;27.00
29721;DHT22;23665;51.044;3.748;2022-09-09T16:00:18;22.10;26.90
29721;DHT22;23665;51.044;3.748;2022-09-09T16:02:48;22.10;23.70
29721;DHT22;23665;51.044;3.748;2022-09-09T16:05:14;22.00;30.30
29721;DHT22;23665;51.044;3.748;2022-09-09T16:07:39;22.00;32.70
29721;DHT22;23665;51.044;3.748;2022-09-09T16:10:08;22.10;34.20
29721;DHT22;23665;51.044;3.748;2022-09-09T16:12:34;22.00;41.50
29721;DHT22;23665;51.044;3.748;2022-09-09T16:15:00;22.10;40.10
29721;DHT22;23665;51.044;3.748;2022-09-09T16:17:26;22.30;23.50
29721;DHT22;23665;51.044;3.748;2022-09-09T16:19:53;22.20;15.90
29721;DHT22;23665;51.044;3.748;2022-09-09T16:22:19;22.40;12.60
29721;DHT22;23665;51.044;3.748;2022-09-09T16:24:45;22.60;1.00
29721;DHT22;23665;51.044;3.748;2022-09-09T16:27:11;22.50;1.00
29721;DHT22;23665;51.044;3.748;2022-09-09T16:29:37;22.40;1.00
29721;DHT22;23665;51.044;3.748;2022-09-09T16:32:02;22.40;4.60
29721;DHT22;23665;51.044;3.748;2022-09-09T16:34:28;22.30;11.60
29721;DHT22;23665;51.044;3.748;2022-09-09T16:36:54;22.80;1.00
29721;DHT22;23665;51.044;3.748;2022-09-09T16:39:20;23.60;1.00
29721;DHT22;23665;51.044;3.748;2022-09-09T16:41:47;23.80;1.00
29721;DHT22;23665;51.044;3.748;2022-09-09T16:44:15;23.60;1.00
29721;DHT22;23665;51.044;3.748;2022-09-09T16:46:43;23.20;1.00
29721;DHT22;23665;51.044;3.748;2022-09-09T16:49:11;22.80;7.70
29721;DHT22;23665;51.044;3.748;2022-09-09T16:51:40;22.50;16.90
29721;DHT22;23665;51.044;3.748;2022-09-09T16:54:07;22.30;25.90
29721;DHT22;23665;51.044;3.748;2022-09-09T16:56:34;22.00;36.90
29721;DHT22;23665;51.044;3.748;2022-09-09T16:59:05;21.80;49.80
29721;DHT22;23665;51.044;3.748;2022-09-09T17:01:34;21.70;56.50
29721;DHT22;23665;51.044;3.748;2022-09-09T17:04:04;21.60;68.40
29721;DHT22;23665;51.044;3.748;2022-09-09T17:06:31;21.50;91.90
29721;DHT22;23665;51.044;3.748;2022-09-09T17:09:02;21.60;95.20
29721;DHT22;23665;51.044;3.748;2022-09-09T17:11:29;21.60;97.30
29721;DHT22;23665;51.044;3.748;2022-09-09T17:13:55;21.20;99.90
29721;DHT22;23665;51.044;3.748;2022-09-09T17:16:23;20.90;99.90
29721;DHT22;23665;51.044;3.748;2022-09-09T17:18:49;20.50;99.90
29721;DHT22;23665;51.044;3.748;2022-09-09T17:21:20;20.00;99.90
29721;DHT22;23665;51.044;3.748;2022-09-09T17:23:47;20.00;99.90
29721;DHT22;23665;51.044;3.748;2022-09-09T17:26:15;20.20;99.90
29721;DHT22;23665;51.044;3.748;2022-09-09T17:28:41;20.30;99.90
29721;DHT22;23665;51.044;3.748;2022-09-09T17:31:09;20.30;99.90
29721;DHT22;23665;51.044;3.748;2022-09-09T17:33:37;20.50;99.90
29721;DHT22;23665;51.044;3.748;2022-09-09T17:36:14;20.60;99.90
29721;DHT22;23665;51.044;3.748;2022-09-09T17:38:41;20.40;99.90
29721;DHT22;23665;51.044;3.748;2022-09-09T17:41:20;20.30;99.90
29721;DHT22;23665;51.044;3.748;2022-09-09T17:43:47;20.20;99.90
29721;DHT22;23665;51.044;3.748;2022-09-09T17:46:20;20.10;99.90
29721;DHT22;23665;51.044;3.748;2022-09-09T17:48:47;20.20;99.90
29721;DHT22;23665;51.044;3.748;2022-09-09T17:51:16;20.00;99.90
29721;DHT22;23665;51.044;3.748;2022-09-09T17:53:47;20.00;99.90
29721;DHT22;23665;51.044;3.748;2022-09-09T17:56:15;19.80;99.90
29721;DHT22;23665;51.044;3.748;2022-09-09T17:58:41;19.70;99.90
29721;DHT22;23665;51.044;3.748;2022-09-09T18:01:14;19.80;99.90
29721;DHT22;23665;51.044;3.748;2022-09-09T18:03:41;19.70;99.90
29721;DHT22;23665;51.044;3.748;2022-09-09T18:06:13;19.70;99.90
29721;DHT22;23665;51.044;3.748;2022-09-09T18:08:41;19.60;99.90
29721;DHT22;23665;51.044;3.748;2022-09-09T18:11:08;19.50;99.90
29721;DHT22;23665;51.044;3.748;2022-09-09T18:13:34;19.50;99.90
29721;DHT22;23665;51.044;3.748;2022-09-09T18:16:00;19.50;99.90
29721;DHT22;23665;51.044;3.748;2022-09-09T18:18:27;19.30;99.90
29721;DHT22;23665;51.044;3.748;2022-09-09T18:21:05;19.30;99.90
29721;DHT22;23665;51.044;3.748;2022-09-09T18:23:39;19.20;99.90
29721;DHT22;23665;51.044;3.748;2022-09-09T18:26:10;19.20;99.90
29721;DHT22;23665;51.044;3.748;2022-09-09T18:28:40;19.10;99.90
29721;DHT22;23665;51.044;3.748;2022-09-09T18:31:11;19.10;99.90
29721;DHT22;23665;51.044;3.748;2022-09-09T18:33:40;19.00;99.90
29721;DHT22;23665;51.044;3.748;2022-09-09T18:36:10;18.90;99.90
29721;DHT22;23665;51.044;3.748;2022-09-09T18:38:36;18.90;99.90
29721;DHT22;23665;51.044;3.748;2022-09-09T18:41:23;18.70;99.90